Time,TemperatureF,DewpointF,PressureIn,WindDirection,WindDirectionDegrees,WindSpeedMPH,WindSpeedGustMPH,Humidity,HourlyPrecipIn,Conditions,Clouds,dailyrainin,SoftwareType,DateUTC
2013-11-07 00:09:00,51.3,40.7,30.20,ENE,60,0.0,0.0,67,0.00,,,-99.99,Weather View 32 v60,2013-11-07 08:09:00,
2013-11-07 00:13:00,51.3,40.7,30.20,ENE,60,0.0,0.0,67,0.00,,,-99.99,Weather View 32 v60,2013-11-07 08:13:00,
2013-11-07 00:19:00,51.1,40.9,30.17,ENE,60,0.0,0.0,68,0.00,,,-99.99,Weather View 32 v60,2013-11-07 08:19:00,
2013-11-07 00:29:00,50.9,41.1,30.17,ENE,60,0.0,0.0,69,0.00,,,-99.99,Weather View 32 v60,2013-11-07 08:29:00,
2013-11-07 00:39:00,50.7,41.3,30.17,ENE,60,0.0,0.0,70,0.00,,,-99.99,Weather View 32 v60,2013-11-07 08:39:00,
2013-11-07 00:50:00,50.5,41.1,30.17,ENE,60,0.0,0.0,70,0.00,,,-99.99,Weather View 32 v60,2013-11-07 08:50:00,
2013-11-07 00:59:00,50.4,41.3,30.17,ENE,60,0.0,0.0,71,0.00,,,-99.99,Weather View 32 v60,2013-11-07 08:59:00,
2013-11-07 01:09:00,50.4,41.3,30.17,ENE,60,0.0,0.0,71,0.00,,,-99.99,Weather View 32 v60,2013-11-07 09:09:00,
2013-11-07 01:19:00,50.4,41.3,30.17,ENE,60,0.0,0.0,71,0.00,,,-99.99,Weather View 32 v60,2013-11-07 09:19:00,
2013-11-07 01:29:00,50.2,40.8,30.17,ENE,60,0.0,0.0,70,0.00,,,-99.99,Weather View 32 v60,2013-11-07 09:29:00,
2013-11-07 01:39:00,50.2,41.1,30.17,ENE,60,0.0,0.0,71,0.00,,,-99.99,Weather View 32 v60,2013-11-07 09:39:00,
2013-11-07 01:49:00,50.0,41.0,30.17,ENE,60,0.0,0.0,71,0.00,,,-99.99,Weather View 32 v60,2013-11-07 09:49:00,
2013-11-07 01:59:00,50.0,41.0,30.17,ENE,60,0.0,0.0,71,0.00,,,-99.99,Weather View 32 v60,2013-11-07 09:59:00,
2013-11-07 02:09:00,50.0,41.0,30.17,ENE,60,0.0,0.0,71,0.00,,,-99.99,Weather View 32 v60,2013-11-07 10:09:00,
2013-11-07 02:19:00,49.8,41.1,30.17,ENE,60,0.0,0.0,72,0.00,,,-99.99,Weather View 32 v60,2013-11-07 10:19:00,
2013-11-07 02:29:00,49.6,41.0,30.17,ENE,60,0.0,0.0,72,0.00,,,-99.99,Weather View 32 v60,2013-11-07 10:29:00,
2013-11-07 02:39:00,49.5,40.8,30.17,ENE,60,0.0,0.0,72,0.00,,,-99.99,Weather View 32 v60,2013-11-07 10:39:00,
2013-11-07 02:49:00,49.1,40.4,30.17,ENE,60,0.0,0.0,72,0.00,,,-99.99,Weather View 32 v60,2013-11-07 10:49:00,
2013-11-07 02:59:00,48.9,41.0,30.17,ENE,60,0.0,0.0,74,0.00,,,-99.99,Weather View 32 v60,2013-11-07 10:59:00,
2013-11-07 03:09:00,48.9,41.0,30.17,ENE,60,0.0,0.0,74,0.00,,,-99.99,Weather View 32 v60,2013-11-07 11:09:00,
2013-11-07 03:15:00,48.9,41.0,30.17,ENE,60,0.0,0.0,74,0.00,,,-99.99,Weather View 32 v60,2013-11-07 11:15:00,
2013-11-07 03:29:00,48.6,41.0,30.17,ENE,60,0.0,0.0,75,0.00,,,-99.99,Weather View 32 v60,2013-11-07 11:29:00,
2013-11-07 03:39:00,48.4,40.8,30.17,ENE,60,0.0,0.0,75,0.00,,,-99.99,Weather View 32 v60,2013-11-07 11:39:00,
2013-11-07 03:49:00,48.0,40.5,30.17,ENE,60,0.0,0.0,75,0.00,,,-99.99,Weather View 32 v60,2013-11-07 11:49:00,
2013-11-07 03:59:00,47.8,40.3,30.17,ENE,60,0.0,0.0,75,0.00,,,-99.99,Weather View 32 v60,2013-11-07 11:59:00,
2013-11-07 04:09:00,47.7,40.5,30.17,ENE,60,0.0,0.0,76,0.00,,,-99.99,Weather View 32 v60,2013-11-07 12:09:00,
2013-11-07 04:15:00,47.7,40.5,30.17,ENE,60,0.0,0.0,76,0.00,,,-99.99,Weather View 32 v60,2013-11-07 12:15:00,
2013-11-07 04:29:00,47.5,40.6,30.17,ENE,60,0.0,0.0,77,0.00,,,-99.99,Weather View 32 v60,2013-11-07 12:29:00,
2013-11-07 04:39:00,47.5,41.0,30.17,ENE,60,0.0,0.0,78,0.00,,,-99.99,Weather View 32 v60,2013-11-07 12:39:00,
2013-11-07 04:49:00,47.5,41.0,30.17,ENE,60,0.0,0.0,78,0.00,,,-99.99,Weather View 32 v60,2013-11-07 12:49:00,
2013-11-07 04:59:00,47.3,40.8,30.17,ENE,60,0.0,0.0,78,0.00,,,-99.99,Weather View 32 v60,2013-11-07 12:59:00,
2013-11-07 05:09:00,47.3,40.8,30.17,ENE,60,0.0,0.0,78,0.00,,,-99.99,Weather View 32 v60,2013-11-07 13:09:00,
2013-11-07 05:16:00,47.3,40.8,30.17,ENE,60,0.0,0.0,78,0.00,,,-99.99,Weather View 32 v60,2013-11-07 13:16:00,
2013-11-07 05:29:00,47.1,40.9,30.17,ENE,60,0.0,0.0,79,0.00,,,-99.99,Weather View 32 v60,2013-11-07 13:29:00,
2013-11-07 05:39:00,47.1,41.3,30.17,ENE,60,0.0,0.0,80,0.00,,,-99.99,Weather View 32 v60,2013-11-07 13:39:00,
2013-11-07 05:49:00,46.9,41.1,30.17,ENE,60,0.0,0.0,80,0.00,,,-99.99,Weather View 32 v60,2013-11-07 13:49:00,
2013-11-07 05:59:00,46.8,40.9,30.17,ENE,60,0.0,0.0,80,0.00,,,-99.99,Weather View 32 v60,2013-11-07 13:59:00,
2013-11-07 06:09:00,46.6,40.7,30.17,ENE,60,0.0,0.0,80,0.00,,,-99.99,Weather View 32 v60,2013-11-07 14:09:00,
2013-11-07 06:16:00,46.6,40.7,30.17,ENE,60,0.0,0.0,80,0.00,,,-99.99,Weather View 32 v60,2013-11-07 14:16:00,
2013-11-07 06:29:00,45.9,40.0,30.17,ENE,60,0.0,0.0,80,0.00,,,-99.99,Weather View 32 v60,2013-11-07 14:29:00,
2013-11-07 06:39:00,45.7,40.2,30.17,ENE,60,0.0,0.0,81,0.00,,,-99.99,Weather View 32 v60,2013-11-07 14:39:00,
2013-11-07 06:49:00,45.3,39.8,30.17,ENE,60,0.0,0.0,81,0.00,,,-99.99,Weather View 32 v60,2013-11-07 14:49:00,
2013-11-07 06:59:00,45.1,40.0,30.17,ENE,60,0.0,0.0,82,0.00,,,-99.99,Weather View 32 v60,2013-11-07 14:59:00,
2013-11-07 07:09:00,45.1,40.0,30.17,ENE,60,0.0,0.0,82,0.00,,,-99.99,Weather View 32 v60,2013-11-07 15:09:00,
2013-11-07 07:17:00,45.1,40.0,30.17,ENE,60,0.0,0.0,82,0.00,,,-99.99,Weather View 32 v60,2013-11-07 15:17:00,
2013-11-07 07:29:00,45.7,40.8,30.17,ENE,60,0.0,0.0,83,0.00,,,-99.99,Weather View 32 v60,2013-11-07 15:29:00,
2013-11-07 07:39:00,46.0,41.2,30.17,ENE,60,0.0,0.0,83,0.00,,,-99.99,Weather View 32 v60,2013-11-07 15:39:00,
2013-11-07 07:49:00,46.2,41.3,30.17,ENE,60,0.0,0.0,83,0.00,,,-99.99,Weather View 32 v60,2013-11-07 15:49:00,
2013-11-07 07:59:00,46.4,41.5,30.20,ENE,60,0.0,0.0,83,0.00,,,-99.99,Weather View 32 v60,2013-11-07 15:59:00,
2013-11-07 08:09:00,46.6,41.7,30.20,ENE,60,0.0,0.0,83,0.00,,,-99.99,Weather View 32 v60,2013-11-07 16:09:00,
2013-11-07 08:17:00,46.6,41.7,30.20,ENE,60,0.0,0.0,83,0.00,,,-99.99,Weather View 32 v60,2013-11-07 16:17:00,
2013-11-07 08:29:00,48.4,43.4,30.20,East,90,0.0,0.0,83,0.00,,,-99.99,Weather View 32 v60,2013-11-07 16:29:00,
2013-11-07 08:39:00,49.6,44.4,30.20,East,90,0.0,0.0,82,0.00,,,-99.99,Weather View 32 v60,2013-11-07 16:39:00,
2013-11-07 08:49:00,50.4,44.4,30.20,East,99,0.0,0.0,80,0.00,,,-99.99,Weather View 32 v60,2013-11-07 16:49:00,
2013-11-07 08:59:00,51.3,44.3,30.20,East,99,0.0,0.0,77,0.00,,,-99.99,Weather View 32 v60,2013-11-07 16:59:00,
2013-11-07 09:09:00,52.2,43.8,30.20,East,99,0.0,0.0,73,0.00,,,-99.99,Weather View 32 v60,2013-11-07 17:09:00,
2013-11-07 09:18:00,52.2,43.8,30.20,East,99,0.0,0.0,73,0.00,,,-99.99,Weather View 32 v60,2013-11-07 17:18:00,
2013-11-07 09:29:00,55.4,41.3,30.20,ESE,123,0.0,0.0,59,0.00,,,-99.99,Weather View 32 v60,2013-11-07 17:29:00,
2013-11-07 09:39:00,55.2,39.3,30.20,ESE,123,0.0,0.0,55,0.00,,,-99.99,Weather View 32 v60,2013-11-07 17:39:00,
2013-11-07 09:49:00,55.2,38.8,30.20,ESE,123,0.0,0.0,54,0.00,,,-99.99,Weather View 32 v60,2013-11-07 17:49:00,
2013-11-07 09:59:00,55.6,39.6,30.20,ESE,123,0.0,0.0,55,0.00,,,-99.99,Weather View 32 v60,2013-11-07 17:59:00,
2013-11-07 10:09:00,57.0,39.5,30.20,SE,128,0.0,0.0,52,0.00,,,-99.99,Weather View 32 v60,2013-11-07 18:09:00,
2013-11-07 10:18:00,57.0,39.5,30.20,SE,128,0.0,0.0,52,0.00,,,-99.99,Weather View 32 v60,2013-11-07 18:18:00,
2013-11-07 10:29:00,61.2,37.2,30.20,NE,52,0.0,0.0,41,0.00,,,-99.99,Weather View 32 v60,2013-11-07 18:29:00,
2013-11-07 10:39:00,63.0,36.9,30.20,NE,34,0.0,0.0,38,0.00,,,-99.99,Weather View 32 v60,2013-11-07 18:39:00,
2013-11-07 10:49:00,64.2,35.9,30.17,ENE,67,0.0,0.0,35,0.00,,,-99.99,Weather View 32 v60,2013-11-07 18:49:00,
2013-11-07 10:59:00,65.1,36.0,30.17,ESE,121,0.0,0.0,34,0.00,,,-99.99,Weather View 32 v60,2013-11-07 18:59:00,
2013-11-07 11:09:00,66.4,36.3,30.17,NW,325,0.0,0.0,33,0.00,,,-99.99,Weather View 32 v60,2013-11-07 19:09:00,
2013-11-07 11:19:00,66.4,36.3,30.17,NW,325,0.0,0.0,33,0.00,,,-99.99,Weather View 32 v60,2013-11-07 19:19:00,
2013-11-07 11:29:00,67.8,36.0,30.17,ESE,104,0.0,0.0,31,0.00,,,-99.99,Weather View 32 v60,2013-11-07 19:29:00,
2013-11-07 11:39:00,68.5,35.8,30.17,NNW,332,0.0,0.0,30,0.00,,,-99.99,Weather View 32 v60,2013-11-07 19:39:00,
2013-11-07 11:49:00,69.8,36.0,30.17,NNW,328,0.0,0.0,29,0.00,,,-99.99,Weather View 32 v60,2013-11-07 19:49:00,
2013-11-07 11:59:00,70.3,34.7,30.14,ENE,57,0.0,0.0,27,0.00,,,-99.99,Weather View 32 v60,2013-11-07 19:59:00,
2013-11-07 12:09:00,71.6,35.8,30.14,NNW,344,0.0,0.0,27,0.00,,,-99.99,Weather View 32 v60,2013-11-07 20:09:00,
2013-11-07 12:19:00,71.6,35.8,30.14,NNW,344,0.0,0.0,27,0.00,,,-99.99,Weather View 32 v60,2013-11-07 20:19:00,
2013-11-07 12:29:00,73.0,34.0,30.14,NE,56,0.0,0.0,24,0.00,,,-99.99,Weather View 32 v60,2013-11-07 20:29:00,
2013-11-07 12:39:00,73.9,33.7,30.14,NNW,344,0.0,0.0,23,0.00,,,-99.99,Weather View 32 v60,2013-11-07 20:39:00,
2013-11-07 12:49:00,74.5,33.0,30.11,NNW,345,0.0,0.0,22,0.00,,,-99.99,Weather View 32 v60,2013-11-07 20:49:00,
2013-11-07 12:59:00,75.4,33.8,30.11,WSW,257,0.0,0.0,22,0.00,,,-99.99,Weather View 32 v60,2013-11-07 20:59:00,
2013-11-07 13:09:00,76.1,34.4,30.11,NE,34,0.0,0.0,22,0.00,,,-99.99,Weather View 32 v60,2013-11-07 21:09:00,
2013-11-07 13:20:00,75.7,34.1,30.11,North,351,0.0,0.0,22,0.00,,,-99.99,Weather View 32 v60,2013-11-07 21:20:00,
2013-11-07 13:29:00,76.8,35.0,30.11,SW,230,0.0,0.0,22,0.00,,,-99.99,Weather View 32 v60,2013-11-07 21:29:00,
2013-11-07 13:39:00,77.7,34.6,30.11,NE,37,0.0,0.0,21,0.00,,,-99.99,Weather View 32 v60,2013-11-07 21:39:00,
2013-11-07 13:49:00,77.5,34.4,30.11,NNE,24,0.0,4.0,21,0.00,,,-99.99,Weather View 32 v60,2013-11-07 21:49:00,
2013-11-07 13:59:00,77.7,34.6,30.08,NE,36,0.0,4.0,21,0.00,,,-99.99,Weather View 32 v60,2013-11-07 21:59:00,
2013-11-07 14:09:00,78.1,34.9,30.08,NNW,329,0.0,4.0,21,0.00,,,-99.99,Weather View 32 v60,2013-11-07 22:09:00,
2013-11-07 14:19:00,77.9,34.7,30.08,WNW,288,0.0,4.0,21,0.00,,,-99.99,Weather View 32 v60,2013-11-07 22:19:00,
2013-11-07 14:29:00,77.9,34.7,30.08,NW,313,0.0,5.0,21,0.00,,,-99.99,Weather View 32 v60,2013-11-07 22:29:00,
2013-11-07 14:39:00,77.4,34.3,30.08,NW,312,0.0,7.0,21,0.00,,,-99.99,Weather View 32 v60,2013-11-07 22:39:00,
2013-11-07 14:49:00,77.2,34.1,30.08,NNW,340,0.0,7.0,21,0.00,,,-99.99,Weather View 32 v60,2013-11-07 22:49:00,
2013-11-07 14:59:00,77.0,34.0,30.08,West,280,0.0,7.0,21,0.00,,,-99.99,Weather View 32 v60,2013-11-07 22:59:00,
2013-11-07 15:09:00,76.6,33.7,30.08,WSW,243,4.0,7.0,21,0.00,,,-99.99,Weather View 32 v60,2013-11-07 23:09:00,
2013-11-07 15:10:00,76.6,33.7,30.08,WSW,243,4.0,7.0,21,0.00,,,-99.99,Weather View 32 v60,2013-11-07 23:10:00,
2013-11-07 15:20:00,76.5,33.5,30.08,WSW,239,0.0,7.0,21,0.00,,,-99.99,Weather View 32 v60,2013-11-07 23:20:00,
2013-11-07 15:25:00,76.5,33.5,30.08,WSW,239,0.0,7.0,21,0.00,,,-99.99,Weather View 32 v60,2013-11-07 23:25:00,
2013-11-07 15:37:00,75.7,34.1,30.08,WSW,237,0.0,7.0,22,0.00,,,-99.99,Weather View 32 v60,2013-11-07 23:37:00,
2013-11-07 15:49:00,75.4,33.8,30.08,WSW,241,0.0,7.0,22,0.00,,,-99.99,Weather View 32 v60,2013-11-07 23:49:00,
2013-11-07 15:59:00,74.7,33.2,30.08,West,264,0.0,7.0,22,0.00,,,-99.99,Weather View 32 v60,2013-11-07 23:59:00,
2013-11-07 16:09:00,73.8,32.4,30.08,WNW,302,0.0,6.0,22,0.00,,,-99.99,Weather View 32 v60,2013-11-08 00:09:00,
2013-11-07 16:19:00,72.9,31.7,30.08,West,265,0.0,6.0,22,0.00,,,-99.99,Weather View 32 v60,2013-11-08 00:19:00,
2013-11-07 16:29:00,71.4,31.6,30.08,SW,235,0.0,0.0,23,0.00,,,-99.99,Weather View 32 v60,2013-11-08 00:29:00,
2013-11-07 16:37:00,71.4,31.6,30.08,SW,235,0.0,0.0,23,0.00,,,-99.99,Weather View 32 v60,2013-11-08 00:37:00,
2013-11-07 16:49:00,68.7,34.2,30.08,NW,312,0.0,3.0,28,0.00,,,-99.99,Weather View 32 v60,2013-11-08 00:49:00,
2013-11-07 16:59:00,67.6,34.2,30.08,NNW,328,0.0,3.0,29,0.00,,,-99.99,Weather View 32 v60,2013-11-08 00:59:00,
2013-11-07 17:09:00,66.7,34.2,30.08,West,265,0.0,3.0,30,0.00,,,-99.99,Weather View 32 v60,2013-11-08 01:09:00,
2013-11-07 17:19:00,66.0,33.6,30.08,NNW,347,0.0,3.0,30,0.00,,,-99.99,Weather View 32 v60,2013-11-08 01:19:00,
2013-11-07 17:29:00,65.1,33.7,30.08,West,270,0.0,3.0,31,0.00,,,-99.99,Weather View 32 v60,2013-11-08 01:29:00,
2013-11-07 17:38:00,65.1,33.7,30.08,West,270,0.0,3.0,31,0.00,,,-99.99,Weather View 32 v60,2013-11-08 01:38:00,
2013-11-07 17:49:00,63.7,31.6,30.08,NW,305,0.0,0.0,30,0.00,,,-99.99,Weather View 32 v60,2013-11-08 01:49:00,
2013-11-07 17:59:00,63.0,31.8,30.08,NW,305,0.0,0.0,31,0.00,,,-99.99,Weather View 32 v60,2013-11-08 01:59:00,
2013-11-07 18:09:00,61.9,32.4,30.08,NW,305,0.0,0.0,33,0.00,,,-99.99,Weather View 32 v60,2013-11-08 02:09:00,
2013-11-07 18:19:00,61.2,33.2,30.11,NW,305,0.0,0.0,35,0.00,,,-99.99,Weather View 32 v60,2013-11-08 02:19:00,
2013-11-07 18:29:00,60.4,33.3,30.11,NW,305,0.0,0.0,36,0.00,,,-99.99,Weather View 32 v60,2013-11-08 02:29:00,
2013-11-07 18:38:00,60.4,33.3,30.11,NW,305,0.0,0.0,36,0.00,,,-99.99,Weather View 32 v60,2013-11-08 02:38:00,
2013-11-07 18:49:00,59.4,35.6,30.11,South,173,0.0,0.0,41,0.00,,,-99.99,Weather View 32 v60,2013-11-08 02:49:00,
2013-11-07 18:59:00,58.8,35.7,30.11,South,173,0.0,0.0,42,0.00,,,-99.99,Weather View 32 v60,2013-11-08 02:59:00,
2013-11-07 19:09:00,58.3,36.4,30.11,South,180,0.0,0.0,44,0.00,,,-99.99,Weather View 32 v60,2013-11-08 03:09:00,
2013-11-07 19:19:00,57.9,36.7,30.11,South,180,0.0,0.0,45,0.00,,,-99.99,Weather View 32 v60,2013-11-08 03:19:00,
2013-11-07 19:29:00,57.4,36.7,30.11,SW,225,0.0,0.0,46,0.00,,,-99.99,Weather View 32 v60,2013-11-08 03:29:00,
2013-11-07 19:39:00,57.4,36.7,30.11,SW,225,0.0,0.0,46,0.00,,,-99.99,Weather View 32 v60,2013-11-08 03:39:00,
2013-11-07 19:49:00,56.5,36.5,30.11,SW,222,0.0,0.0,47,0.00,,,-99.99,Weather View 32 v60,2013-11-08 03:49:00,
2013-11-07 19:59:00,55.9,37.0,30.11,SW,222,0.0,0.0,49,0.00,,,-99.99,Weather View 32 v60,2013-11-08 03:59:00,
2013-11-07 20:09:00,55.6,36.7,30.11,SW,222,0.0,0.0,49,0.00,,,-99.99,Weather View 32 v60,2013-11-08 04:09:00,
2013-11-07 20:19:00,54.9,37.5,30.11,North,351,0.0,0.0,52,0.00,,,-99.99,Weather View 32 v60,2013-11-08 04:19:00,
2013-11-07 20:29:00,54.3,37.0,30.11,WNW,300,0.0,0.0,52,0.00,,,-99.99,Weather View 32 v60,2013-11-08 04:29:00,
2013-11-07 20:39:00,54.3,37.0,30.11,WNW,300,0.0,0.0,52,0.00,,,-99.99,Weather View 32 v60,2013-11-08 04:39:00,
2013-11-07 20:49:00,53.6,37.3,30.11,SW,227,0.0,0.0,54,0.00,,,-99.99,Weather View 32 v60,2013-11-08 04:49:00,
2013-11-07 20:59:00,53.4,37.2,30.11,WSW,250,0.0,0.0,54,0.00,,,-99.99,Weather View 32 v60,2013-11-08 04:59:00,
2013-11-07 21:09:00,53.1,37.3,30.11,WSW,254,0.0,0.0,55,0.00,,,-99.99,Weather View 32 v60,2013-11-08 05:09:00,
2013-11-07 21:19:00,52.9,37.6,30.11,WSW,255,0.0,0.0,56,0.00,,,-99.99,Weather View 32 v60,2013-11-08 05:19:00,
2013-11-07 21:29:00,52.7,37.9,30.11,WSW,255,0.0,0.0,57,0.00,,,-99.99,Weather View 32 v60,2013-11-08 05:29:00,
2013-11-07 21:40:00,52.3,38.0,30.11,WSW,255,0.0,0.0,58,0.00,,,-99.99,Weather View 32 v60,2013-11-08 05:40:00,
2013-11-07 21:49:00,52.0,38.1,30.11,WSW,255,0.0,0.0,59,0.00,,,-99.99,Weather View 32 v60,2013-11-08 05:49:00,
2013-11-07 21:59:00,51.6,37.7,30.11,WSW,255,0.0,0.0,59,0.00,,,-99.99,Weather View 32 v60,2013-11-08 05:59:00,
2013-11-07 22:09:00,51.3,38.2,30.11,WSW,255,0.0,0.0,61,0.00,,,-99.99,Weather View 32 v60,2013-11-08 06:09:00,
2013-11-07 22:19:00,50.7,38.2,30.11,WSW,255,0.0,0.0,62,0.00,,,-99.99,Weather View 32 v60,2013-11-08 06:19:00,
2013-11-07 22:29:00,50.5,38.8,30.11,WSW,255,0.0,0.0,64,0.00,,,-99.99,Weather View 32 v60,2013-11-08 06:29:00,
2013-11-07 22:39:00,50.2,38.5,30.11,WSW,255,0.0,0.0,64,0.00,,,-99.99,Weather View 32 v60,2013-11-08 06:39:00,
2013-11-07 22:49:00,50.0,38.7,30.11,WSW,255,0.0,0.0,65,0.00,,,-99.99,Weather View 32 v60,2013-11-08 06:49:00,
2013-11-07 22:59:00,49.8,38.9,30.11,WSW,255,0.0,0.0,66,0.00,,,-99.99,Weather View 32 v60,2013-11-08 06:59:00,
2013-11-07 23:09:00,49.6,38.7,30.11,WSW,255,0.0,0.0,66,0.00,,,-99.99,Weather View 32 v60,2013-11-08 07:09:00,
2013-11-07 23:19:00,49.5,39.3,30.11,WSW,255,0.0,0.0,68,0.00,,,-99.99,Weather View 32 v60,2013-11-08 07:19:00,
2013-11-07 23:29:00,49.3,39.9,30.11,WSW,255,0.0,0.0,70,0.00,,,-99.99,Weather View 32 v60,2013-11-08 07:29:00,
2013-11-07 23:39:00,48.9,39.5,30.11,WSW,255,0.0,0.0,70,0.00,,,-99.99,Weather View 32 v60,2013-11-08 07:39:00,
2013-11-07 23:49:00,48.7,39.7,30.11,WSW,255,0.0,0.0,71,0.00,,,-99.99,Weather View 32 v60,2013-11-08 07:49:00,
2013-11-07 23:59:00,48.6,39.9,30.11,WSW,255,0.0,0.0,72,0.00,,,-99.99,Weather View 32 v60,2013-11-08 07:59:00,